Hauptseite
METAR-TAF:

METAR-TAF

Flughäfen :

Flughafen Van-Ferit Melen

Van, Türkei

Breite: 38-27N, Länge: 043-19E, Höhe: 1667 m

Beobachtung

Neuester Wetterbericht von vor 59 Minuten, um 12:50 UTC
Wind 4 kt aus unterschiedlichen Richtungen
Temperatur 26°C
Luftfeuchtigkeit 42%
Luftdruck 1015 hPa
Sichtweite 10 km oder mehr
Aufgelockert bewölkt in der Höhe von 4000 ft
Durchbrochene Bewölkung in der Höhe von 7000 ft

METAR: LTCI 081250Z VRB04KT 9999 SCT040 BKN070 26/12 Q1015 NOSIG

Zeit: 16:49 (13:49 UTC)

Prognose

Neuester Wetterbericht von vor 3 Stunden und 9 Minuten, um 10:40 UTC
Gültige Prognose vom 08 um 12 UTC bis 08 um 21 UTC
Wind 9 kt aus Nordwest
Sichtweite 10 km oder mehr
Aufgelockert bewölkt in der Höhe von 4000 ft
Durchbrochene Bewölkung in der Höhe von 8000 ft

TAF: LTCI 081040Z 0812/0821 31009KT 9999 SCT040 BKN080

Wetterbeobachtungen und Prognosen von mehr als 4000 Flughäfen (METAR und TAF Bericht).

Die verfügbaren Stationen werden durch gelbe und rote Markierungen auf der Karte dargestellt.

Führen Sie die Maus auf sie, um den Namen der Station zu sehen.

Darauf klicken, um die Beobachtung von Wetterbeobachtungen und Prognosen zu sehen.

Um die Karte zu ändern : klicken Sie auf den grünen Tasten mit einem schwarzen Kreuz Zum Vergrößern, auf den grünen Button mit einem Gedankenstrich zu verkleinern, oder auf die grünen Pfeile für benachbarte Karten.


METAR-TAF: